createdAt,value
2018-06-28T00:00:25.161Z,1.67
2018-06-28T00:02:55.279Z,1.30
2018-06-28T00:05:25.724Z,1.30
2018-06-28T00:09:03.320Z,1.70
2018-06-28T00:11:33.630Z,1.50
2018-06-28T00:14:03.797Z,2.00
2018-06-28T00:16:33.944Z,1.50
2018-06-28T00:19:03.929Z,1.33
2018-06-28T00:21:38.829Z,1.80
2018-06-28T00:24:08.863Z,1.30
2018-06-28T00:26:38.735Z,1.57
2018-06-28T00:29:08.720Z,1.50
2018-06-28T00:31:40.191Z,1.50
2018-06-28T00:34:10.202Z,1.57
2018-06-28T00:36:49.598Z,1.50
2018-06-28T00:39:21.654Z,1.40
2018-06-28T00:41:51.657Z,1.80
2018-06-28T00:44:21.653Z,1.40
2018-06-28T00:46:51.854Z,1.73
2018-06-28T00:49:29.020Z,1.60
2018-06-28T00:52:00.918Z,1.33
2018-06-28T00:54:31.039Z,1.50
2018-06-28T00:57:07.806Z,1.60
2018-06-28T00:59:37.795Z,1.67
2018-06-28T01:02:07.753Z,1.70
2018-06-28T01:04:43.087Z,2.00
2018-06-28T01:07:13.273Z,1.60
2018-06-28T01:09:43.113Z,1.40
2018-06-28T01:12:13.023Z,1.60
2018-06-28T01:14:42.921Z,1.90
2018-06-28T01:17:13.250Z,1.50
2018-06-28T01:19:43.092Z,1.80
2018-06-28T01:22:12.842Z,1.83
2018-06-28T01:24:42.755Z,1.50
2018-06-28T01:27:12.603Z,1.53
2018-06-28T01:29:42.479Z,1.60
2018-06-28T01:32:12.481Z,1.80
2018-06-28T01:34:42.999Z,1.83
2018-06-28T01:37:13.621Z,1.60
2018-06-28T01:39:43.513Z,1.50
2018-06-28T01:42:29.990Z,1.50
2018-06-28T01:45:00.000Z,1.60
2018-06-28T01:47:29.809Z,1.70
2018-06-28T01:52:53.722Z,1.60
2018-06-28T01:55:43.966Z,1.30
2018-06-28T01:58:21.156Z,1.60
2018-06-28T02:00:57.549Z,1.43
2018-06-28T02:03:27.462Z,1.67
2018-06-28T02:05:59.036Z,1.90
2018-06-28T02:08:47.338Z,1.50
2018-06-28T02:11:17.401Z,1.60
2018-06-28T02:13:47.235Z,1.80
2018-06-28T02:16:36.051Z,2.10
2018-06-28T02:19:10.490Z,1.80
2018-06-28T02:21:40.415Z,1.70
2018-06-28T02:24:44.426Z,1.57
2018-06-28T02:33:44.862Z,1.80
2018-06-28T02:36:14.631Z,1.90
2018-06-28T02:38:44.521Z,1.73
2018-06-28T02:41:15.866Z,1.90
2018-06-28T02:43:45.678Z,1.70
2018-06-28T02:46:16.139Z,2.10
2018-06-28T10:45:31.281Z,1.50
2018-06-28T10:48:04.413Z,1.13
2018-06-28T10:50:34.919Z,1.20
2018-06-28T10:53:05.402Z,1.07
2018-06-28T10:55:35.984Z,1.37
2018-06-28T10:58:06.166Z,1.30
2018-06-28T11:00:36.363Z,1.20
2018-06-28T11:06:06.011Z,1.50
2018-06-28T11:08:36.167Z,1.50
2018-06-28T11:11:07.806Z,1.30
2018-06-28T11:13:38.613Z,1.33
2018-06-28T11:16:09.991Z,1.40
2018-06-28T11:18:40.604Z,1.10
2018-06-28T11:21:11.076Z,1.60
2018-06-28T11:23:41.681Z,1.50
2018-06-28T11:26:12.547Z,1.20
2018-06-28T11:28:43.621Z,1.30
2018-06-28T11:31:13.500Z,1.50
2018-06-28T11:33:43.828Z,1.47
2018-06-28T11:36:13.683Z,1.40
2018-06-28T11:38:43.511Z,1.60
2018-06-28T11:41:13.672Z,1.40
2018-06-28T11:43:44.716Z,1.73
2018-06-28T11:46:14.658Z,1.30
2018-06-28T11:48:44.448Z,1.57
2018-06-28T11:51:16.246Z,1.70
2018-06-28T11:53:46.088Z,1.60
2018-06-28T11:56:15.956Z,1.57
2018-06-28T11:58:49.696Z,1.63
2018-06-28T12:01:19.770Z,2.87
2018-06-28T12:03:49.627Z,1.53
2018-06-28T12:06:19.700Z,1.50
2018-06-28T12:08:49.556Z,1.50
2018-06-28T12:11:19.819Z,1.50
2018-06-28T12:13:49.736Z,1.67
2018-06-28T12:16:19.643Z,1.37
2018-06-28T12:18:49.518Z,1.60
2018-06-28T12:21:19.487Z,1.80
2018-06-28T12:23:49.398Z,1.83
2018-06-28T12:26:25.638Z,1.87
2018-06-28T12:28:55.478Z,1.80
2018-06-28T12:31:25.823Z,1.60
2018-06-28T12:33:59.996Z,1.80
2018-06-28T12:36:34.547Z,2.03
2018-06-28T12:39:05.357Z,1.90
2018-06-28T12:41:35.157Z,2.00
2018-06-28T12:44:08.114Z,1.83
2018-06-28T12:46:46.135Z,1.77
2018-06-28T12:49:17.590Z,1.90
2018-06-28T12:52:01.566Z,1.70
2018-06-28T12:54:32.247Z,1.50
2018-06-28T12:57:05.094Z,1.73
2018-06-28T12:59:37.305Z,1.73
2018-06-28T13:02:07.571Z,1.70
2018-06-28T13:04:37.444Z,1.50
2018-06-28T13:07:08.376Z,1.60
2018-06-28T13:09:41.888Z,1.67
2018-06-28T13:12:12.769Z,1.60
2018-06-28T13:14:46.446Z,1.60
2018-06-28T13:17:16.279Z,1.40
2018-06-28T13:19:53.896Z,1.70
2018-06-28T13:22:24.338Z,1.83
2018-06-28T13:24:55.311Z,1.60
2018-06-28T13:27:28.031Z,1.50
2018-06-28T13:29:59.971Z,1.33
2018-06-28T13:32:30.122Z,1.43
2018-06-28T13:35:00.353Z,1.40
2018-06-28T13:37:32.033Z,1.47
2018-06-28T13:40:02.549Z,1.73
2018-06-28T13:42:33.061Z,1.50
2018-06-28T13:45:03.316Z,1.33
2018-06-28T13:47:34.736Z,1.40
2018-06-28T13:50:05.112Z,1.50
2018-06-28T13:52:35.140Z,1.50
2018-06-28T13:55:05.689Z,1.43
2018-06-28T13:57:36.646Z,1.53
2018-06-28T14:00:08.336Z,1.20
2018-06-28T14:02:39.386Z,1.50
2018-06-28T14:05:13.742Z,1.37
2018-06-28T14:07:45.863Z,1.40
2018-06-28T14:10:16.840Z,1.17
2018-06-28T14:12:46.882Z,1.20
2018-06-28T14:15:22.590Z,1.40
2018-06-28T14:17:54.005Z,1.37
2018-06-28T14:20:26.585Z,1.10
2018-06-28T14:22:56.450Z,1.20
2018-06-28T14:25:28.316Z,1.17
2018-06-28T14:27:59.982Z,1.20
2018-06-28T14:30:32.483Z,1.17
2018-06-28T14:33:04.224Z,1.37
2018-06-28T14:35:34.797Z,1.20
2018-06-28T14:38:04.842Z,1.30
2018-06-28T14:40:34.986Z,1.60
2018-06-28T14:43:04.837Z,1.40
2018-06-28T14:45:34.895Z,1.80
2018-06-28T14:48:04.780Z,1.47
2018-06-28T14:50:34.942Z,1.47
2018-06-28T14:53:04.883Z,1.40
2018-06-28T14:55:34.924Z,1.40
2018-06-28T14:58:04.859Z,1.30
2018-06-28T15:00:35.022Z,1.70
2018-06-28T15:03:05.139Z,1.53
2018-06-28T15:05:35.156Z,1.50
2018-06-28T15:08:04.990Z,1.63
2018-06-28T15:10:35.120Z,1.50
2018-06-28T15:13:04.923Z,1.40
2018-06-28T15:15:35.732Z,1.40
2018-06-28T15:18:05.879Z,1.40
2018-06-28T15:20:35.733Z,1.27
2018-06-28T15:23:05.658Z,1.33
2018-06-28T15:25:36.957Z,1.50
2018-06-28T15:28:06.759Z,1.60
2018-06-28T15:30:36.746Z,1.30
2018-06-28T15:33:06.629Z,1.70
2018-06-28T15:35:37.394Z,1.73
2018-06-28T15:38:07.427Z,1.50
2018-06-28T15:40:37.259Z,1.73
2018-06-28T15:43:07.053Z,1.53
2018-06-28T15:45:36.881Z,1.37
2018-06-28T15:48:07.216Z,1.70
2018-06-28T15:50:37.250Z,1.70
2018-06-28T15:53:07.159Z,2.00
2018-06-28T15:55:37.049Z,1.73
2018-06-28T15:58:06.947Z,1.83
2018-06-28T16:00:37.716Z,1.93
2018-06-28T16:03:07.651Z,1.77
2018-06-28T16:05:37.746Z,1.90
2018-06-28T16:08:07.858Z,1.70
2018-06-28T16:10:37.746Z,1.70
2018-06-28T16:13:11.417Z,1.67
2018-06-28T16:15:45.245Z,2.10
2018-06-28T16:18:24.181Z,1.70
2018-06-28T16:20:57.539Z,1.70
2018-06-28T16:23:33.209Z,1.93
2018-06-28T16:26:05.539Z,4.23
2018-06-28T16:28:44.027Z,4.87
2018-06-28T16:31:18.336Z,1.93
2018-06-28T16:33:49.820Z,2.40
2018-06-28T16:36:21.745Z,2.70
2018-06-28T16:38:57.569Z,3.10
2018-06-28T16:41:27.599Z,2.33
2018-06-28T16:43:57.464Z,4.13
2018-06-28T16:46:27.473Z,2.50
2018-06-28T16:48:57.412Z,2.00
2018-06-28T16:51:27.402Z,1.93
2018-06-28T16:53:57.290Z,1.90
2018-06-28T16:56:27.422Z,2.30
2018-06-28T16:58:57.350Z,2.00
2018-06-28T17:01:27.405Z,2.27
2018-06-28T17:03:57.323Z,1.70
2018-06-28T17:06:27.395Z,2.40
2018-06-28T17:08:57.367Z,5.37
2018-06-28T17:11:27.354Z,1.97
2018-06-28T17:13:57.257Z,1.80
2018-06-28T17:16:27.216Z,1.80
2018-06-28T17:18:57.207Z,3.10
2018-06-28T17:21:27.370Z,1.90
2018-06-28T17:23:57.211Z,2.37
2018-06-28T17:26:27.078Z,1.90
2018-06-28T17:28:56.929Z,2.40
2018-06-28T17:31:27.113Z,1.90
2018-06-28T17:33:57.126Z,2.00
2018-06-28T17:36:27.090Z,1.93
2018-06-28T17:38:57.554Z,2.37
2018-06-28T17:41:28.193Z,2.20
2018-06-28T17:43:58.444Z,2.23
2018-06-28T17:46:28.690Z,2.87
2018-06-28T17:48:58.739Z,2.23
2018-06-28T17:51:29.305Z,2.80
2018-06-28T17:53:59.345Z,3.00
2018-06-28T17:56:29.232Z,2.53
2018-06-28T17:58:59.302Z,2.50
2018-06-28T18:01:29.548Z,2.30
2018-06-28T18:03:59.652Z,2.50
2018-06-28T18:06:29.772Z,2.47
2018-06-28T18:08:59.946Z,2.60
2018-06-28T18:11:29.926Z,2.40
2018-06-28T18:14:00.094Z,2.50
2018-06-28T18:16:30.008Z,2.57
2018-06-28T18:18:59.978Z,2.77
2018-06-28T18:21:30.133Z,2.93
2018-06-28T18:24:00.663Z,2.63
2018-06-28T18:26:30.706Z,2.40
2018-06-28T18:29:00.514Z,2.27
2018-06-28T18:31:30.496Z,2.57
2018-06-28T18:34:00.798Z,2.40
2018-06-28T18:36:30.957Z,2.60
2018-06-28T18:39:00.846Z,2.57
2018-06-28T18:41:30.697Z,2.70
2018-06-28T18:44:00.699Z,2.43
2018-06-28T18:46:30.793Z,2.67
2018-06-28T18:49:00.809Z,2.23
2018-06-28T18:51:30.838Z,2.20
2018-06-28T18:54:01.101Z,2.80
2018-06-28T18:56:31.643Z,2.47
2018-06-28T18:59:01.738Z,2.60
2018-06-28T19:01:33.229Z,2.40
2018-06-28T19:04:03.218Z,2.50
2018-06-28T19:06:33.510Z,2.63
2018-06-28T19:09:03.782Z,3.30
2018-06-28T19:11:35.142Z,2.60
2018-06-28T19:14:11.231Z,2.40
2018-06-28T19:16:46.121Z,2.23
2018-06-28T19:19:16.128Z,2.57
2018-06-28T19:21:51.330Z,2.37
2018-06-28T19:32:49.276Z,2.40
2018-06-28T19:35:20.481Z,2.47
2018-06-28T19:37:54.661Z,2.40
2018-06-28T19:40:30.119Z,2.57
2018-06-28T19:43:02.836Z,2.67
2018-06-28T19:52:56.101Z,2.67
2018-06-28T19:55:26.357Z,2.23
2018-06-28T19:57:56.604Z,2.40
2018-06-28T20:00:38.565Z,2.50
2018-06-28T20:03:29.642Z,2.40
2018-06-28T20:06:00.403Z,2.40
2018-06-28T20:08:31.269Z,2.70
2018-06-28T20:11:05.007Z,2.67
2018-06-28T20:13:41.507Z,2.83
2018-06-28T20:16:16.916Z,2.73
2018-06-28T20:18:51.815Z,2.60
2018-06-28T20:21:21.919Z,2.53
2018-06-28T20:23:51.884Z,3.23
2018-06-28T20:26:26.893Z,3.13
2018-06-28T20:29:01.893Z,3.00
2018-06-28T20:31:37.847Z,2.97
2018-06-28T20:34:11.264Z,2.60
2018-06-28T20:36:47.305Z,2.90
2018-06-28T20:39:27.178Z,2.80
2018-06-28T20:41:57.931Z,2.90
2018-06-28T20:44:28.346Z,3.10
2018-06-28T20:46:58.391Z,3.00
2018-06-28T20:49:28.524Z,2.80
2018-06-28T20:52:30.915Z,2.77
2018-06-28T20:55:01.813Z,2.87
2018-06-28T20:57:32.053Z,2.60
2018-06-28T21:00:02.098Z,2.90
2018-06-28T21:02:32.275Z,2.97
2018-06-28T21:05:02.321Z,3.13
2018-06-28T21:07:32.828Z,3.20
2018-06-28T21:10:03.658Z,2.97
2018-06-28T21:12:34.482Z,3.50
2018-06-28T21:15:04.653Z,3.20
2018-06-28T21:17:35.493Z,3.00
2018-06-28T21:20:05.962Z,2.83
2018-06-28T21:22:35.758Z,3.10
2018-06-28T21:25:05.961Z,2.90
2018-06-28T21:27:36.341Z,2.90
2018-06-28T21:30:07.077Z,3.00
2018-06-28T21:32:37.335Z,3.23
2018-06-28T21:35:07.606Z,2.70
2018-06-28T21:37:37.744Z,3.10
2018-06-28T21:40:08.363Z,2.80
2018-06-28T21:42:42.417Z,3.00
2018-06-28T21:45:12.818Z,2.90
2018-06-28T21:47:43.210Z,3.00
2018-06-28T21:50:13.341Z,3.37
2018-06-28T21:52:54.042Z,3.13
2018-06-28T21:55:25.408Z,3.20
2018-06-28T21:59:03.627Z,3.33
2018-06-28T22:01:34.204Z,2.90
2018-06-28T22:04:04.437Z,3.30
2018-06-28T22:06:35.287Z,3.27
2018-06-28T22:09:06.691Z,3.00
2018-06-28T22:11:39.898Z,3.00
2018-06-28T22:14:10.300Z,3.37
2018-06-28T22:16:40.736Z,3.17
2018-06-28T22:19:10.741Z,3.20
2018-06-28T22:24:53.045Z,3.43
2018-06-28T22:27:23.268Z,3.10
2018-06-28T22:29:54.101Z,3.07
2018-06-28T22:32:24.535Z,3.20
2018-06-28T22:34:54.543Z,3.33
2018-06-28T22:37:24.905Z,3.50
2018-06-28T22:39:56.903Z,3.50
2018-06-28T22:42:26.784Z,3.50
2018-06-28T22:44:58.314Z,3.43
2018-06-28T22:47:30.206Z,3.70
2018-06-28T22:50:03.063Z,3.37
2018-06-28T22:52:33.932Z,3.20
2018-06-28T22:55:04.119Z,3.07
2018-06-28T22:57:36.207Z,4.20
2018-06-28T23:00:07.317Z,3.23
2018-06-28T23:02:40.442Z,3.23
2018-06-28T23:05:17.835Z,3.50
2018-06-28T23:07:51.096Z,3.67
2018-06-28T23:10:31.683Z,3.27
2018-06-28T23:13:02.999Z,3.40
2018-06-28T23:15:34.421Z,3.37
2018-06-28T23:18:04.389Z,3.60
2018-06-28T23:20:38.646Z,3.20
2018-06-28T23:23:08.649Z,3.47
2018-06-28T23:25:38.962Z,3.70
2018-06-28T23:28:08.969Z,3.20
2018-06-28T23:30:38.878Z,3.60
2018-06-28T23:33:08.948Z,3.90
2018-06-28T23:35:48.995Z,3.70
2018-06-28T23:38:23.930Z,3.93
2018-06-28T23:40:54.111Z,3.93
2018-06-28T23:43:23.963Z,4.40
2018-06-28T23:45:53.790Z,4.10
2018-06-28T23:48:23.771Z,4.10
2018-06-28T23:50:54.075Z,4.10
2018-06-28T23:53:38.032Z,3.80
2018-06-28T23:56:10.798Z,4.13
2018-06-28T23:58:43.150Z,4.03
